Kuurne, Belgique

20:00 CEST le 21 août 2014 (GMT +0200)
IVLAAMSG8 | Change Station
CLOSE
Current Station
Stations météorologiques personnelles
Location: Izegem, West-Vlaanderen
Altitude: 59 ft
Stations météo à proximité

Alt. 59 ft 50.91 °N, 3.20 °E | Updated 8 seconds ago

Partly Cloudy
Partiellement nuageux
61.0 ° F
Paraît 61.0 ° F
N
4.0
Vent Variable Vent de ONO
Gusts 4.0 mph

Aujourd'hui
Haut(e) -- | Bas -- ° F
--% Risque de précip.
Hier
Haut(e) -- | Bas -- ° F
Precip. -- pouce
6:43 AM 8:55 PM
Lune descendante, 13% visible
Pression 29.95 pouce
Visibilité 6.2 Miles terrestres
Nuages Peu 4000 ft
Point de rosée 38 ° F
Humidité 42%
Précipitations 0.00 pouce
Profondeur de la couche neigeuse Non disponible.
UV 0.0 sur 12
Pollen Non disponible.
Qualité de l'air Non disponible.
Flu Activity Non disponible.
METAR EBOS 211750Z 23014KT 9999 FEW040 15/07 Q1014 NOSIG

More Conditions Fewer Conditions

Pression 29.95 pouce
Visibilité 6.2 Miles terrestres
Nuages Peu 4000 ft
Point de rosée 38 ° F
Humidité 42%
Précipitations 0.00 pouce
Profondeur de la couche neigeuse Non disponible.
UV 0.0 sur 12
Pollen Non disponible.
Qualité de l'air Non disponible.
Flu Activity Non disponible.
METAR EBOS 211750Z 23014KT 9999 FEW040 15/07 Q1014 NOSIG

More Conditions Fewer Conditions

10-Day Weather Forecast

Almanac

Astronomie

Aug. 21, 2014 Lever Coucher
Temps réel 06:43 CEST 20:55 CEST
Crépuscule civil 06:07 CEST 21:31 CEST
Crépuscule nautique 05:22 CEST 22:16 CEST
Crépuscule astronomique 04:30 CEST 23:07 CEST
Lune 02:48 CEST 18:23 CEST
Durée de lumière visible 15h 24m
Longueur du jour
14h 12m
Tomorrow will be 3m 36s shorter.
Lune descendante, 13% of the Moon is Illuminated
Aujourd'hui
Lune descendante
août 25
Nouveau
Sep 2
Premier quartier
Sep 8
Pleine lune
Sep 15
Dernier quartier

Extrêmes aujourd'hui

Country Highs Country Lows

Community

WunderPhotos

Upload Photos

1,745,987 Photos téléchargées !

Nearby

Qualité de l'air

Not available.

Épaisseur de neige

Not available.

Activité sismique

Ville Distance Mag. Time & Date
No recent earthquake activity has been reported nearby.
Minimum magnitude displayed is 2.5.

Températures des eaux côtières

Lieu Température
Aucun rapport de station

Stations météo à proximité